sensor_id;sensor_type;location;lat;lon;timestamp;P1;durP1;ratioP1;P2;durP2;ratioP2
39400;SDS011;75540;50.000;7.360;2024-03-02T00:01:15;4.18;;;1.92;;
39400;SDS011;75540;50.000;7.360;2024-03-02T00:03:44;4.47;;;2.58;;
39400;SDS011;75540;50.000;7.360;2024-03-02T00:06:12;3.60;;;2.30;;
39400;SDS011;75540;50.000;7.360;2024-03-02T00:08:43;5.88;;;3.28;;
39400;SDS011;75540;50.000;7.360;2024-03-02T00:11:11;3.65;;;2.38;;
39400;SDS011;75540;50.000;7.360;2024-03-02T00:13:41;3.95;;;2.22;;
39400;SDS011;75540;50.000;7.360;2024-03-02T00:16:11;5.32;;;2.65;;
39400;SDS011;75540;50.000;7.360;2024-03-02T00:18:39;4.57;;;1.98;;
39400;SDS011;75540;50.000;7.360;2024-03-02T00:21:09;4.60;;;2.30;;
39400;SDS011;75540;50.000;7.360;2024-03-02T00:23:38;7.10;;;2.33;;
39400;SDS011;75540;50.000;7.360;2024-03-02T00:26:08;4.55;;;1.90;;
39400;SDS011;75540;50.000;7.360;2024-03-02T00:28:43;3.65;;;1.80;;
39400;SDS011;75540;50.000;7.360;2024-03-02T00:31:12;3.95;;;2.35;;
39400;SDS011;75540;50.000;7.360;2024-03-02T00:33:41;4.93;;;2.47;;
39400;SDS011;75540;50.000;7.360;2024-03-02T00:36:11;3.60;;;2.20;;
39400;SDS011;75540;50.000;7.360;2024-03-02T00:38:43;4.05;;;2.00;;
39400;SDS011;75540;50.000;7.360;2024-03-02T00:41:19;2.83;;;1.58;;
39400;SDS011;75540;50.000;7.360;2024-03-02T00:43:56;2.75;;;1.65;;
39400;SDS011;75540;50.000;7.360;2024-03-02T00:48:56;2.95;;;1.58;;
39400;SDS011;75540;50.000;7.360;2024-03-02T00:51:26;4.00;;;1.75;;
39400;SDS011;75540;50.000;7.360;2024-03-02T00:53:58;1.98;;;1.52;;
39400;SDS011;75540;50.000;7.360;2024-03-02T00:56:29;3.70;;;2.15;;
39400;SDS011;75540;50.000;7.360;2024-03-02T00:58:57;3.80;;;2.00;;
39400;SDS011;75540;50.000;7.360;2024-03-02T01:01:26;2.88;;;1.83;;
39400;SDS011;75540;50.000;7.360;2024-03-02T01:03:54;5.53;;;2.08;;
39400;SDS011;75540;50.000;7.360;2024-03-02T01:06:23;3.80;;;1.83;;
39400;SDS011;75540;50.000;7.360;2024-03-02T01:08:51;2.90;;;1.92;;
39400;SDS011;75540;50.000;7.360;2024-03-02T01:11:20;3.35;;;1.90;;
39400;SDS011;75540;50.000;7.360;2024-03-02T01:13:51;2.90;;;1.52;;
39400;SDS011;75540;50.000;7.360;2024-03-02T01:16:20;2.63;;;1.60;;
39400;SDS011;75540;50.000;7.360;2024-03-02T01:18:48;3.53;;;1.70;;
39400;SDS011;75540;50.000;7.360;2024-03-02T01:21:17;3.50;;;1.60;;
39400;SDS011;75540;50.000;7.360;2024-03-02T01:23:45;3.08;;;1.50;;
39400;SDS011;75540;50.000;7.360;2024-03-02T01:26:13;3.13;;;1.40;;
39400;SDS011;75540;50.000;7.360;2024-03-02T01:28:42;3.00;;;1.33;;
39400;SDS011;75540;50.000;7.360;2024-03-02T01:31:12;2.85;;;1.42;;
39400;SDS011;75540;50.000;7.360;2024-03-02T01:33:40;2.53;;;1.40;;
39400;SDS011;75540;50.000;7.360;2024-03-02T01:36:08;3.95;;;1.63;;
39400;SDS011;75540;50.000;7.360;2024-03-02T01:38:37;3.65;;;1.52;;
39400;SDS011;75540;50.000;7.360;2024-03-02T01:41:05;1.98;;;1.45;;
39400;SDS011;75540;50.000;7.360;2024-03-02T01:43:33;2.55;;;1.45;;
39400;SDS011;75540;50.000;7.360;2024-03-02T01:46:06;3.60;;;1.30;;
39400;SDS011;75540;50.000;7.360;2024-03-02T01:48:37;2.05;;;1.25;;
39400;SDS011;75540;50.000;7.360;2024-03-02T01:51:05;2.95;;;1.20;;
39400;SDS011;75540;50.000;7.360;2024-03-02T01:53:34;2.20;;;1.30;;
39400;SDS011;75540;50.000;7.360;2024-03-02T01:56:03;3.42;;;1.65;;
39400;SDS011;75540;50.000;7.360;2024-03-02T01:58:32;6.03;;;1.50;;
39400;SDS011;75540;50.000;7.360;2024-03-02T02:01:00;2.70;;;1.40;;
39400;SDS011;75540;50.000;7.360;2024-03-02T02:03:29;3.25;;;1.70;;
39400;SDS011;75540;50.000;7.360;2024-03-02T02:05:58;2.35;;;1.58;;
39400;SDS011;75540;50.000;7.360;2024-03-02T02:08:27;3.38;;;1.77;;
39400;SDS011;75540;50.000;7.360;2024-03-02T02:10:55;2.70;;;1.60;;
39400;SDS011;75540;50.000;7.360;2024-03-02T02:13:23;4.15;;;1.80;;
39400;SDS011;75540;50.000;7.360;2024-03-02T02:15:52;4.03;;;1.80;;
39400;SDS011;75540;50.000;7.360;2024-03-02T02:18:20;4.13;;;2.00;;
39400;SDS011;75540;50.000;7.360;2024-03-02T02:20:49;2.65;;;1.70;;
39400;SDS011;75540;50.000;7.360;2024-03-02T02:23:19;2.55;;;1.73;;
39400;SDS011;75540;50.000;7.360;2024-03-02T02:25:48;2.97;;;1.70;;
39400;SDS011;75540;50.000;7.360;2024-03-02T02:28:16;5.63;;;2.03;;
39400;SDS011;75540;50.000;7.360;2024-03-02T02:30:44;1.45;;;1.20;;
39400;SDS011;75540;50.000;7.360;2024-03-02T02:33:13;2.75;;;1.90;;
39400;SDS011;75540;50.000;7.360;2024-03-02T02:35:41;3.17;;;1.90;;
39400;SDS011;75540;50.000;7.360;2024-03-02T02:38:09;2.63;;;2.00;;
39400;SDS011;75540;50.000;7.360;2024-03-02T02:40:39;3.80;;;2.17;;
39400;SDS011;75540;50.000;7.360;2024-03-02T02:43:07;3.88;;;2.58;;
39400;SDS011;75540;50.000;7.360;2024-03-02T02:45:36;5.22;;;2.10;;
39400;SDS011;75540;50.000;7.360;2024-03-02T02:48:04;4.50;;;2.08;;
39400;SDS011;75540;50.000;7.360;2024-03-02T02:50:33;3.33;;;1.85;;
39400;SDS011;75540;50.000;7.360;2024-03-02T02:53:01;3.15;;;1.77;;
39400;SDS011;75540;50.000;7.360;2024-03-02T02:55:30;4.00;;;1.92;;
39400;SDS011;75540;50.000;7.360;2024-03-02T02:58:00;3.85;;;2.13;;
39400;SDS011;75540;50.000;7.360;2024-03-02T03:00:28;2.63;;;2.00;;
39400;SDS011;75540;50.000;7.360;2024-03-02T03:02:57;2.85;;;2.05;;
39400;SDS011;75540;50.000;7.360;2024-03-02T03:05:25;3.70;;;2.03;;
39400;SDS011;75540;50.000;7.360;2024-03-02T03:07:53;4.45;;;2.25;;
39400;SDS011;75540;50.000;7.360;2024-03-02T03:10:21;3.58;;;2.10;;
39400;SDS011;75540;50.000;7.360;2024-03-02T03:12:52;2.90;;;1.77;;
39400;SDS011;75540;50.000;7.360;2024-03-02T03:15:24;3.45;;;1.95;;
39400;SDS011;75540;50.000;7.360;2024-03-02T03:17:53;3.03;;;2.00;;
39400;SDS011;75540;50.000;7.360;2024-03-02T03:20:21;3.50;;;2.10;;
39400;SDS011;75540;50.000;7.360;2024-03-02T03:22:51;4.03;;;1.98;;
39400;SDS011;75540;50.000;7.360;2024-03-02T03:25:19;3.53;;;2.08;;
39400;SDS011;75540;50.000;7.360;2024-03-02T03:27:48;3.42;;;1.95;;
39400;SDS011;75540;50.000;7.360;2024-03-02T03:30:17;3.95;;;2.13;;
39400;SDS011;75540;50.000;7.360;2024-03-02T03:32:46;3.40;;;2.03;;
39400;SDS011;75540;50.000;7.360;2024-03-02T03:35:15;3.10;;;1.88;;
39400;SDS011;75540;50.000;7.360;2024-03-02T03:37:45;4.10;;;2.33;;
39400;SDS011;75540;50.000;7.360;2024-03-02T03:40:13;4.13;;;1.60;;
39400;SDS011;75540;50.000;7.360;2024-03-02T03:42:42;3.45;;;2.00;;
39400;SDS011;75540;50.000;7.360;2024-03-02T03:45:11;3.33;;;1.80;;
39400;SDS011;75540;50.000;7.360;2024-03-02T03:47:39;2.88;;;1.67;;
39400;SDS011;75540;50.000;7.360;2024-03-02T03:50:09;3.22;;;1.73;;
39400;SDS011;75540;50.000;7.360;2024-03-02T03:52:39;2.75;;;1.80;;
39400;SDS011;75540;50.000;7.360;2024-03-02T03:55:07;2.78;;;1.70;;
39400;SDS011;75540;50.000;7.360;2024-03-02T03:57:36;3.85;;;1.98;;
39400;SDS011;75540;50.000;7.360;2024-03-02T04:00:05;3.90;;;1.83;;
39400;SDS011;75540;50.000;7.360;2024-03-02T04:02:39;2.97;;;2.10;;
39400;SDS011;75540;50.000;7.360;2024-03-02T04:05:09;3.83;;;1.75;;
39400;SDS011;75540;50.000;7.360;2024-03-02T04:07:38;2.60;;;1.75;;
39400;SDS011;75540;50.000;7.360;2024-03-02T04:10:07;2.95;;;1.90;;
39400;SDS011;75540;50.000;7.360;2024-03-02T04:12:36;3.13;;;1.65;;
39400;SDS011;75540;50.000;7.360;2024-03-02T04:15:05;3.25;;;1.60;;
39400;SDS011;75540;50.000;7.360;2024-03-02T04:17:34;4.40;;;2.20;;
39400;SDS011;75540;50.000;7.360;2024-03-02T04:20:03;2.92;;;1.60;;
39400;SDS011;75540;50.000;7.360;2024-03-02T04:22:34;2.28;;;1.60;;
39400;SDS011;75540;50.000;7.360;2024-03-02T04:25:03;2.97;;;1.85;;
39400;SDS011;75540;50.000;7.360;2024-03-02T04:27:34;3.92;;;1.70;;
39400;SDS011;75540;50.000;7.360;2024-03-02T04:30:03;3.63;;;2.08;;
39400;SDS011;75540;50.000;7.360;2024-03-02T04:32:33;3.22;;;1.85;;
39400;SDS011;75540;50.000;7.360;2024-03-02T04:35:03;2.95;;;1.65;;
39400;SDS011;75540;50.000;7.360;2024-03-02T04:37:33;3.58;;;1.30;;
39400;SDS011;75540;50.000;7.360;2024-03-02T04:40:03;2.97;;;1.52;;
39400;SDS011;75540;50.000;7.360;2024-03-02T04:42:34;2.60;;;1.45;;
39400;SDS011;75540;50.000;7.360;2024-03-02T04:45:03;1.95;;;1.20;;
39400;SDS011;75540;50.000;7.360;2024-03-02T04:47:32;3.70;;;1.80;;
39400;SDS011;75540;50.000;7.360;2024-03-02T04:50:00;2.95;;;1.27;;
39400;SDS011;75540;50.000;7.360;2024-03-02T04:52:28;5.90;;;2.00;;
39400;SDS011;75540;50.000;7.360;2024-03-02T04:54:58;2.42;;;1.60;;
39400;SDS011;75540;50.000;7.360;2024-03-02T04:57:56;6.60;;;2.47;;
39400;SDS011;75540;50.000;7.360;2024-03-02T05:00:24;2.60;;;1.35;;
39400;SDS011;75540;50.000;7.360;2024-03-02T05:02:53;2.28;;;1.40;;
39400;SDS011;75540;50.000;7.360;2024-03-02T05:05:21;2.35;;;1.40;;
39400;SDS011;75540;50.000;7.360;2024-03-02T05:07:49;2.92;;;1.60;;
39400;SDS011;75540;50.000;7.360;2024-03-02T05:10:19;3.03;;;1.60;;
39400;SDS011;75540;50.000;7.360;2024-03-02T05:12:48;2.88;;;1.45;;
39400;SDS011;75540;50.000;7.360;2024-03-02T05:15:33;4.28;;;2.00;;
39400;SDS011;75540;50.000;7.360;2024-03-02T05:18:01;1.30;;;1.02;;
39400;SDS011;75540;50.000;7.360;2024-03-02T05:20:32;3.65;;;1.58;;
39400;SDS011;75540;50.000;7.360;2024-03-02T05:23:00;2.88;;;1.80;;
39400;SDS011;75540;50.000;7.360;2024-03-02T05:25:30;2.30;;;1.30;;
39400;SDS011;75540;50.000;7.360;2024-03-02T05:27:58;2.75;;;1.33;;
39400;SDS011;75540;50.000;7.360;2024-03-02T05:30:27;3.33;;;1.40;;
39400;SDS011;75540;50.000;7.360;2024-03-02T05:32:55;2.15;;;1.20;;
39400;SDS011;75540;50.000;7.360;2024-03-02T05:35:23;2.85;;;1.30;;
39400;SDS011;75540;50.000;7.360;2024-03-02T05:37:52;2.83;;;1.40;;
39400;SDS011;75540;50.000;7.360;2024-03-02T05:40:20;3.35;;;1.40;;
39400;SDS011;75540;50.000;7.360;2024-03-02T05:42:51;3.45;;;1.30;;
39400;SDS011;75540;50.000;7.360;2024-03-02T05:45:19;2.30;;;1.17;;
39400;SDS011;75540;50.000;7.360;2024-03-02T05:47:48;2.78;;;1.13;;
39400;SDS011;75540;50.000;7.360;2024-03-02T05:50:16;2.92;;;1.30;;
39400;SDS011;75540;50.000;7.360;2024-03-02T05:52:46;2.10;;;1.38;;
39400;SDS011;75540;50.000;7.360;2024-03-02T05:55:14;1.80;;;1.40;;
39400;SDS011;75540;50.000;7.360;2024-03-02T05:57:43;1.80;;;1.40;;
39400;SDS011;75540;50.000;7.360;2024-03-02T06:00:27;2.75;;;1.40;;
39400;SDS011;75540;50.000;7.360;2024-03-02T06:02:56;4.68;;;1.50;;
39400;SDS011;75540;50.000;7.360;2024-03-02T06:05:24;3.05;;;1.75;;
39400;SDS011;75540;50.000;7.360;2024-03-02T06:07:53;2.50;;;1.35;;
39400;SDS011;75540;50.000;7.360;2024-03-02T06:10:21;4.30;;;1.58;;
39400;SDS011;75540;50.000;7.360;2024-03-02T06:12:50;3.13;;;1.77;;
39400;SDS011;75540;50.000;7.360;2024-03-02T06:15:19;2.35;;;1.50;;
39400;SDS011;75540;50.000;7.360;2024-03-02T06:17:49;3.10;;;1.70;;
39400;SDS011;75540;50.000;7.360;2024-03-02T06:20:17;2.75;;;1.50;;
39400;SDS011;75540;50.000;7.360;2024-03-02T06:22:45;3.00;;;2.00;;
39400;SDS011;75540;50.000;7.360;2024-03-02T06:25:14;3.28;;;1.75;;
39400;SDS011;75540;50.000;7.360;2024-03-02T06:27:42;3.78;;;1.92;;
39400;SDS011;75540;50.000;7.360;2024-03-02T06:30:10;3.50;;;1.88;;
39400;SDS011;75540;50.000;7.360;2024-03-02T06:32:39;8.23;;;2.15;;
39400;SDS011;75540;50.000;7.360;2024-03-02T06:35:09;3.25;;;1.77;;
39400;SDS011;75540;50.000;7.360;2024-03-02T06:37:39;2.28;;;1.60;;
39400;SDS011;75540;50.000;7.360;2024-03-02T06:40:07;2.88;;;1.60;;
39400;SDS011;75540;50.000;7.360;2024-03-02T06:42:36;4.20;;;1.90;;
39400;SDS011;75540;50.000;7.360;2024-03-02T06:45:05;9.75;;;1.98;;
39400;SDS011;75540;50.000;7.360;2024-03-02T06:47:34;3.00;;;1.70;;
39400;SDS011;75540;50.000;7.360;2024-03-02T06:50:04;2.47;;;1.63;;
39400;SDS011;75540;50.000;7.360;2024-03-02T06:52:35;4.20;;;1.50;;
39400;SDS011;75540;50.000;7.360;2024-03-02T06:55:03;6.50;;;1.80;;
39400;SDS011;75540;50.000;7.360;2024-03-02T06:57:32;2.65;;;1.77;;
39400;SDS011;75540;50.000;7.360;2024-03-02T07:00:00;3.00;;;1.80;;
39400;SDS011;75540;50.000;7.360;2024-03-02T07:02:31;3.03;;;1.70;;
39400;SDS011;75540;50.000;7.360;2024-03-02T07:04:59;4.70;;;2.20;;
39400;SDS011;75540;50.000;7.360;2024-03-02T07:07:28;3.10;;;2.20;;
39400;SDS011;75540;50.000;7.360;2024-03-02T07:09:58;4.82;;;2.35;;
39400;SDS011;75540;50.000;7.360;2024-03-02T07:12:27;6.05;;;2.53;;
39400;SDS011;75540;50.000;7.360;2024-03-02T07:14:55;6.60;;;2.80;;
39400;SDS011;75540;50.000;7.360;2024-03-02T07:17:51;6.57;;;3.15;;
39400;SDS011;75540;50.000;7.360;2024-03-02T07:20:19;5.18;;;3.42;;
39400;SDS011;75540;50.000;7.360;2024-03-02T07:22:48;5.28;;;2.50;;
39400;SDS011;75540;50.000;7.360;2024-03-02T07:25:18;4.88;;;2.65;;
39400;SDS011;75540;50.000;7.360;2024-03-02T07:27:49;5.93;;;3.20;;
39400;SDS011;75540;50.000;7.360;2024-03-02T07:30:18;8.07;;;3.30;;
39400;SDS011;75540;50.000;7.360;2024-03-02T07:32:49;5.45;;;3.25;;
39400;SDS011;75540;50.000;7.360;2024-03-02T07:35:18;4.80;;;2.78;;
39400;SDS011;75540;50.000;7.360;2024-03-02T07:37:46;3.75;;;2.40;;
39400;SDS011;75540;50.000;7.360;2024-03-02T07:40:14;5.57;;;2.38;;
39400;SDS011;75540;50.000;7.360;2024-03-02T07:42:44;5.45;;;2.75;;
39400;SDS011;75540;50.000;7.360;2024-03-02T07:45:13;6.22;;;3.00;;
39400;SDS011;75540;50.000;7.360;2024-03-02T07:47:41;4.38;;;2.60;;
39400;SDS011;75540;50.000;7.360;2024-03-02T07:50:10;4.55;;;2.45;;
39400;SDS011;75540;50.000;7.360;2024-03-02T07:52:38;5.43;;;2.63;;
39400;SDS011;75540;50.000;7.360;2024-03-02T07:55:07;4.55;;;2.35;;
39400;SDS011;75540;50.000;7.360;2024-03-02T07:57:35;6.28;;;2.60;;
39400;SDS011;75540;50.000;7.360;2024-03-02T08:00:06;7.75;;;3.30;;
39400;SDS011;75540;50.000;7.360;2024-03-02T08:02:38;5.20;;;2.95;;
39400;SDS011;75540;50.000;7.360;2024-03-02T08:05:09;3.75;;;1.90;;
39400;SDS011;75540;50.000;7.360;2024-03-02T08:07:37;6.28;;;2.80;;
39400;SDS011;75540;50.000;7.360;2024-03-02T08:10:06;3.55;;;2.15;;
39400;SDS011;75540;50.000;7.360;2024-03-02T08:12:35;4.07;;;2.20;;
39400;SDS011;75540;50.000;7.360;2024-03-02T08:15:05;3.47;;;1.75;;
39400;SDS011;75540;50.000;7.360;2024-03-02T08:17:34;5.43;;;2.55;;
39400;SDS011;75540;50.000;7.360;2024-03-02T08:20:05;3.55;;;1.90;;
39400;SDS011;75540;50.000;7.360;2024-03-02T08:22:34;5.20;;;1.60;;
39400;SDS011;75540;50.000;7.360;2024-03-02T08:25:03;3.30;;;1.52;;
39400;SDS011;75540;50.000;7.360;2024-03-02T08:27:32;4.07;;;1.88;;
39400;SDS011;75540;50.000;7.360;2024-03-02T08:30:00;4.25;;;1.63;;
39400;SDS011;75540;50.000;7.360;2024-03-02T08:32:31;2.90;;;1.30;;
39400;SDS011;75540;50.000;7.360;2024-03-02T08:35:00;3.95;;;1.50;;
39400;SDS011;75540;50.000;7.360;2024-03-02T08:37:28;2.42;;;1.38;;
39400;SDS011;75540;50.000;7.360;2024-03-02T08:39:56;1.90;;;1.17;;
39400;SDS011;75540;50.000;7.360;2024-03-02T08:42:25;1.70;;;1.20;;
39400;SDS011;75540;50.000;7.360;2024-03-02T08:44:53;2.67;;;1.17;;
39400;SDS011;75540;50.000;7.360;2024-03-02T08:47:22;3.95;;;1.63;;
39400;SDS011;75540;50.000;7.360;2024-03-02T08:49:52;2.47;;;1.52;;
39400;SDS011;75540;50.000;7.360;2024-03-02T08:52:21;3.83;;;1.70;;
39400;SDS011;75540;50.000;7.360;2024-03-02T08:54:50;3.75;;;1.42;;
39400;SDS011;75540;50.000;7.360;2024-03-02T08:57:18;1.67;;;1.20;;
39400;SDS011;75540;50.000;7.360;2024-03-02T08:59:47;2.22;;;1.33;;
39400;SDS011;75540;50.000;7.360;2024-03-02T09:02:15;3.70;;;1.50;;
39400;SDS011;75540;50.000;7.360;2024-03-02T09:04:45;3.08;;;1.30;;
39400;SDS011;75540;50.000;7.360;2024-03-02T09:07:14;3.42;;;1.65;;
39400;SDS011;75540;50.000;7.360;2024-03-02T09:09:43;4.82;;;1.73;;
39400;SDS011;75540;50.000;7.360;2024-03-02T09:12:11;4.05;;;1.67;;
39400;SDS011;75540;50.000;7.360;2024-03-02T09:14:40;3.47;;;1.83;;
39400;SDS011;75540;50.000;7.360;2024-03-02T09:17:09;2.97;;;2.08;;
39400;SDS011;75540;50.000;7.360;2024-03-02T09:19:38;5.80;;;2.20;;
39400;SDS011;75540;50.000;7.360;2024-03-02T09:22:07;5.35;;;2.25;;
39400;SDS011;75540;50.000;7.360;2024-03-02T09:24:37;4.15;;;2.45;;
39400;SDS011;75540;50.000;7.360;2024-03-02T09:27:06;3.85;;;2.17;;
39400;SDS011;75540;50.000;7.360;2024-03-02T09:29:34;3.65;;;2.03;;
39400;SDS011;75540;50.000;7.360;2024-03-02T09:32:03;7.93;;;2.47;;
39400;SDS011;75540;50.000;7.360;2024-03-02T09:34:32;3.90;;;1.90;;
39400;SDS011;75540;50.000;7.360;2024-03-02T09:37:00;4.50;;;2.42;;
39400;SDS011;75540;50.000;7.360;2024-03-02T09:39:30;4.10;;;2.10;;
39400;SDS011;75540;50.000;7.360;2024-03-02T09:42:00;5.10;;;2.88;;
39400;SDS011;75540;50.000;7.360;2024-03-02T09:44:29;4.22;;;2.40;;
39400;SDS011;75540;50.000;7.360;2024-03-02T09:46:57;7.57;;;2.70;;
39400;SDS011;75540;50.000;7.360;2024-03-02T09:49:25;3.35;;;2.17;;
39400;SDS011;75540;50.000;7.360;2024-03-02T09:51:54;5.72;;;2.80;;
39400;SDS011;75540;50.000;7.360;2024-03-02T09:54:22;5.85;;;2.65;;
39400;SDS011;75540;50.000;7.360;2024-03-02T09:56:51;4.97;;;2.53;;
39400;SDS011;75540;50.000;7.360;2024-03-02T09:59:21;5.80;;;2.55;;
39400;SDS011;75540;50.000;7.360;2024-03-02T10:01:56;2.55;;;1.90;;
39400;SDS011;75540;50.000;7.360;2024-03-02T10:04:26;4.00;;;2.03;;
39400;SDS011;75540;50.000;7.360;2024-03-02T10:07:11;5.03;;;2.20;;
39400;SDS011;75540;50.000;7.360;2024-03-02T10:09:40;2.50;;;1.83;;
39400;SDS011;75540;50.000;7.360;2024-03-02T10:12:10;4.93;;;2.63;;
39400;SDS011;75540;50.000;7.360;2024-03-02T10:14:41;2.40;;;2.08;;
39400;SDS011;75540;50.000;7.360;2024-03-02T10:17:10;4.05;;;2.38;;
39400;SDS011;75540;50.000;7.360;2024-03-02T10:19:39;5.05;;;2.38;;
39400;SDS011;75540;50.000;7.360;2024-03-02T10:22:08;3.50;;;2.30;;
39400;SDS011;75540;50.000;7.360;2024-03-02T10:24:38;3.78;;;2.20;;
39400;SDS011;75540;50.000;7.360;2024-03-02T10:27:08;2.75;;;1.55;;
39400;SDS011;75540;50.000;7.360;2024-03-02T10:29:38;3.90;;;2.10;;
39400;SDS011;75540;50.000;7.360;2024-03-02T10:32:12;4.53;;;2.03;;
39400;SDS011;75540;50.000;7.360;2024-03-02T10:34:40;2.60;;;1.83;;
39400;SDS011;75540;50.000;7.360;2024-03-02T10:37:10;3.03;;;1.70;;
39400;SDS011;75540;50.000;7.360;2024-03-02T10:39:39;3.40;;;1.67;;
39400;SDS011;75540;50.000;7.360;2024-03-02T10:42:08;3.35;;;1.70;;
39400;SDS011;75540;50.000;7.360;2024-03-02T10:44:37;3.70;;;1.75;;
39400;SDS011;75540;50.000;7.360;2024-03-02T10:47:06;3.67;;;1.75;;
39400;SDS011;75540;50.000;7.360;2024-03-02T10:49:39;4.45;;;2.03;;
39400;SDS011;75540;50.000;7.360;2024-03-02T10:52:10;4.10;;;1.45;;
39400;SDS011;75540;50.000;7.360;2024-03-02T10:54:38;4.00;;;1.88;;
39400;SDS011;75540;50.000;7.360;2024-03-02T10:57:07;3.10;;;1.92;;
39400;SDS011;75540;50.000;7.360;2024-03-02T10:59:41;3.70;;;1.83;;
39400;SDS011;75540;50.000;7.360;2024-03-02T11:02:18;3.55;;;1.83;;
39400;SDS011;75540;50.000;7.360;2024-03-02T11:04:51;2.97;;;2.10;;
39400;SDS011;75540;50.000;7.360;2024-03-02T11:07:22;3.05;;;1.75;;
39400;SDS011;75540;50.000;7.360;2024-03-02T11:09:54;2.28;;;1.48;;
39400;SDS011;75540;50.000;7.360;2024-03-02T11:12:27;3.35;;;2.00;;
39400;SDS011;75540;50.000;7.360;2024-03-02T11:14:57;3.25;;;1.80;;
39400;SDS011;75540;50.000;7.360;2024-03-02T11:17:26;3.78;;;2.10;;
39400;SDS011;75540;50.000;7.360;2024-03-02T11:19:56;3.05;;;1.75;;
39400;SDS011;75540;50.000;7.360;2024-03-02T11:22:25;3.80;;;2.20;;
39400;SDS011;75540;50.000;7.360;2024-03-02T11:24:54;4.18;;;1.85;;
39400;SDS011;75540;50.000;7.360;2024-03-02T11:30:51;2.95;;;1.48;;
39400;SDS011;75540;50.000;7.360;2024-03-02T11:33:24;4.38;;;1.80;;
39400;SDS011;75540;50.000;7.360;2024-03-02T11:35:56;2.50;;;1.58;;
39400;SDS011;75540;50.000;7.360;2024-03-02T11:38:30;4.85;;;2.00;;
39400;SDS011;75540;50.000;7.360;2024-03-02T11:40:59;2.63;;;1.63;;
39400;SDS011;75540;50.000;7.360;2024-03-02T11:43:29;2.90;;;1.70;;
39400;SDS011;75540;50.000;7.360;2024-03-02T11:46:00;2.58;;;1.42;;
39400;SDS011;75540;50.000;7.360;2024-03-02T11:48:31;2.63;;;1.75;;
39400;SDS011;75540;50.000;7.360;2024-03-02T11:51:02;2.75;;;1.67;;
39400;SDS011;75540;50.000;7.360;2024-03-02T11:53:30;3.20;;;1.60;;
39400;SDS011;75540;50.000;7.360;2024-03-02T11:56:02;3.45;;;1.70;;
39400;SDS011;75540;50.000;7.360;2024-03-02T11:58:32;1.55;;;1.08;;
39400;SDS011;75540;50.000;7.360;2024-03-02T12:01:03;3.65;;;1.45;;
39400;SDS011;75540;50.000;7.360;2024-03-02T12:03:31;2.08;;;1.35;;
39400;SDS011;75540;50.000;7.360;2024-03-02T12:06:03;3.15;;;1.73;;
39400;SDS011;75540;50.000;7.360;2024-03-02T12:08:33;3.88;;;1.30;;
39400;SDS011;75540;50.000;7.360;2024-03-02T12:11:02;3.40;;;1.65;;
39400;SDS011;75540;50.000;7.360;2024-03-02T12:13:33;2.78;;;1.42;;
39400;SDS011;75540;50.000;7.360;2024-03-02T12:16:01;4.30;;;1.65;;
39400;SDS011;75540;50.000;7.360;2024-03-02T12:18:30;2.67;;;1.58;;
39400;SDS011;75540;50.000;7.360;2024-03-02T12:20:58;3.63;;;1.70;;
39400;SDS011;75540;50.000;7.360;2024-03-02T12:23:30;3.90;;;1.58;;
39400;SDS011;75540;50.000;7.360;2024-03-02T12:25:59;3.08;;;1.70;;
39400;SDS011;75540;50.000;7.360;2024-03-02T12:28:27;2.72;;;1.30;;
39400;SDS011;75540;50.000;7.360;2024-03-02T12:30:58;3.30;;;1.55;;
39400;SDS011;75540;50.000;7.360;2024-03-02T12:33:26;3.13;;;2.10;;
39400;SDS011;75540;50.000;7.360;2024-03-02T12:35:56;2.97;;;1.52;;
39400;SDS011;75540;50.000;7.360;2024-03-02T12:38:25;2.85;;;1.48;;
39400;SDS011;75540;50.000;7.360;2024-03-02T12:40:55;2.28;;;1.48;;
39400;SDS011;75540;50.000;7.360;2024-03-02T12:43:24;4.05;;;1.80;;
39400;SDS011;75540;50.000;7.360;2024-03-02T12:45:52;2.63;;;1.40;;
39400;SDS011;75540;50.000;7.360;2024-03-02T12:48:22;4.30;;;1.98;;
39400;SDS011;75540;50.000;7.360;2024-03-02T12:50:51;4.20;;;1.70;;
39400;SDS011;75540;50.000;7.360;2024-03-02T12:53:21;2.78;;;1.48;;
39400;SDS011;75540;50.000;7.360;2024-03-02T12:55:49;3.22;;;1.85;;
39400;SDS011;75540;50.000;7.360;2024-03-02T12:58:20;2.40;;;1.52;;
39400;SDS011;75540;50.000;7.360;2024-03-02T13:00:48;2.63;;;1.77;;
39400;SDS011;75540;50.000;7.360;2024-03-02T13:03:17;3.78;;;1.90;;
39400;SDS011;75540;50.000;7.360;2024-03-02T13:05:48;3.58;;;2.20;;
39400;SDS011;75540;50.000;7.360;2024-03-02T13:08:17;2.08;;;1.52;;
39400;SDS011;75540;50.000;7.360;2024-03-02T13:10:45;3.88;;;1.80;;
39400;SDS011;75540;50.000;7.360;2024-03-02T13:13:14;3.45;;;1.73;;
39400;SDS011;75540;50.000;7.360;2024-03-02T13:15:44;2.53;;;1.60;;
39400;SDS011;75540;50.000;7.360;2024-03-02T13:18:12;2.95;;;1.30;;
39400;SDS011;75540;50.000;7.360;2024-03-02T13:20:41;1.83;;;1.20;;
39400;SDS011;75540;50.000;7.360;2024-03-02T13:23:09;2.85;;;1.17;;
39400;SDS011;75540;50.000;7.360;2024-03-02T13:25:38;2.10;;;1.40;;
39400;SDS011;75540;50.000;7.360;2024-03-02T13:28:06;1.60;;;1.05;;
39400;SDS011;75540;50.000;7.360;2024-03-02T13:30:35;1.63;;;1.15;;
39400;SDS011;75540;50.000;7.360;2024-03-02T13:33:05;3.88;;;1.55;;
39400;SDS011;75540;50.000;7.360;2024-03-02T13:35:33;2.03;;;1.50;;
39400;SDS011;75540;50.000;7.360;2024-03-02T13:38:02;1.75;;;1.38;;
39400;SDS011;75540;50.000;7.360;2024-03-02T13:40:30;3.28;;;2.00;;
39400;SDS011;75540;50.000;7.360;2024-03-02T13:43:02;2.47;;;1.73;;
39400;SDS011;75540;50.000;7.360;2024-03-02T13:45:30;4.15;;;2.00;;
39400;SDS011;75540;50.000;7.360;2024-03-02T13:47:59;3.85;;;1.45;;
39400;SDS011;75540;50.000;7.360;2024-03-02T13:50:30;3.55;;;1.80;;
39400;SDS011;75540;50.000;7.360;2024-03-02T13:52:58;4.03;;;2.33;;
39400;SDS011;75540;50.000;7.360;2024-03-02T13:55:26;2.63;;;1.92;;
39400;SDS011;75540;50.000;7.360;2024-03-02T13:57:55;4.82;;;1.92;;
39400;SDS011;75540;50.000;7.360;2024-03-02T14:00:23;3.15;;;2.00;;
39400;SDS011;75540;50.000;7.360;2024-03-02T14:02:52;2.70;;;1.77;;
39400;SDS011;75540;50.000;7.360;2024-03-02T14:05:20;3.72;;;1.73;;
39400;SDS011;75540;50.000;7.360;2024-03-02T14:07:50;5.70;;;2.33;;
39400;SDS011;75540;50.000;7.360;2024-03-02T14:10:18;2.85;;;1.60;;
39400;SDS011;75540;50.000;7.360;2024-03-02T14:12:49;5.35;;;2.03;;
39400;SDS011;75540;50.000;7.360;2024-03-02T14:15:18;5.22;;;2.50;;
39400;SDS011;75540;50.000;7.360;2024-03-02T14:17:47;5.38;;;3.17;;
39400;SDS011;75540;50.000;7.360;2024-03-02T14:20:16;8.18;;;4.20;;
39400;SDS011;75540;50.000;7.360;2024-03-02T14:22:51;6.18;;;3.30;;
39400;SDS011;75540;50.000;7.360;2024-03-02T14:25:19;6.43;;;3.05;;
39400;SDS011;75540;50.000;7.360;2024-03-02T14:27:47;6.22;;;3.42;;
39400;SDS011;75540;50.000;7.360;2024-03-02T14:30:36;6.03;;;3.35;;
39400;SDS011;75540;50.000;7.360;2024-03-02T14:33:04;6.65;;;3.88;;
39400;SDS011;75540;50.000;7.360;2024-03-02T14:35:33;4.45;;;3.15;;
39400;SDS011;75540;50.000;7.360;2024-03-02T14:38:03;6.03;;;3.38;;
39400;SDS011;75540;50.000;7.360;2024-03-02T14:40:31;5.60;;;3.13;;
39400;SDS011;75540;50.000;7.360;2024-03-02T14:43:00;5.60;;;3.03;;
39400;SDS011;75540;50.000;7.360;2024-03-02T14:45:29;6.25;;;3.78;;
39400;SDS011;75540;50.000;7.360;2024-03-02T14:47:57;6.38;;;3.45;;
39400;SDS011;75540;50.000;7.360;2024-03-02T14:50:26;6.78;;;3.53;;
39400;SDS011;75540;50.000;7.360;2024-03-02T14:52:55;6.45;;;3.67;;
39400;SDS011;75540;50.000;7.360;2024-03-02T14:55:27;7.85;;;3.90;;
39400;SDS011;75540;50.000;7.360;2024-03-02T14:57:55;8.50;;;4.13;;
39400;SDS011;75540;50.000;7.360;2024-03-02T15:00:24;6.50;;;3.83;;
39400;SDS011;75540;50.000;7.360;2024-03-02T15:02:52;8.60;;;3.40;;
39400;SDS011;75540;50.000;7.360;2024-03-02T15:05:20;6.45;;;3.53;;
39400;SDS011;75540;50.000;7.360;2024-03-02T15:07:49;5.30;;;3.30;;